Goose Lake, Iowa
Current Conditions -  °F | °C
As of 5:35 AM on Saturday 20 Dec 2014 (Local Time) from KCWI Reporting Station
Overcast Overcast  
Wind Chill: 19°   Ceiling: 3400
Heat Index: 27°   Visibility: 5mi
Dew Point: 25°   Wind: 7mph
Humidity: 93%   Direction: 110°ESE
Pressure: 30.27"   Gusts: NA
Location:  41.97°N, 90.38°W
Report Text: KCWI 201135Z AUTO 11006KT 5SM OVC034 M03/M04 A3027 RMK AO1
Loading
Personal Weather Stations






























Interactive Weather Map New forecast layout! Learn more

10-Day Weather Forecast

Advertisements
Track Severe Weather on mobile